Time;durP1;ratioP1;P1;durP2;ratioP2;P2;SDS_P1;SDS_P2;PMS_P1;PMS_P2;Temp;Humidity;BMP_temperature;BMP_pressure;BME280_temperature;BME280_humidity;BME280_pressure;Samples;Min_cycle;Max_cycle;Signal;HPM_P1;HPM_P2
2021/11/14 00:01:25;;;;;;;158.90;94.05;;;103.20;2227.20;;;;;;5056337;28;20073;-85
2021/11/14 00:03:51;;;;;;;133.75;81.78;;;103.20;2227.20;;;;;;5056682;28;20428;-85
2021/11/14 00:06:20;;;;;;;131.32;82.47;;;103.10;2227.20;;;;;;5056336;28;20033;-85
2021/11/14 00:08:47;;;;;;;174.63;99.28;;;103.10;2227.20;;;;;;5056269;28;20025;-84
2021/11/14 00:11:17;;;;;;;181.85;111.50;;;103.10;2227.20;;;;;;5076575;28;20027;-83
2021/11/14 00:13:44;;;;;;;133.98;75.13;;;103.20;2227.20;;;;;;5062840;28;20040;-84
2021/11/14 00:16:11;;;;;;;115.15;67.65;;;102.70;2227.20;;;;;;5073811;28;20035;-81
2021/11/14 00:18:39;;;;;;;112.28;70.28;;;102.90;2227.20;;;;;;5055954;28;20537;-82
2021/11/14 00:21:06;;;;;;;122.45;77.38;;;103.10;2227.20;;;;;;5056156;28;20078;-86
2021/11/14 00:23:31;;;;;;;122.70;76.82;;;103.00;2227.20;;;;;;5056152;28;20029;-86
2021/11/14 00:25:57;;;;;;;125.97;80.57;;;103.10;2227.20;;;;;;5056359;28;20016;-85
2021/11/14 00:28:23;;;;;;;131.73;84.45;;;103.10;2227.20;;;;;;5074030;28;20108;-85
2021/11/14 00:30:49;;;;;;;124.65;78.22;;;103.00;2227.20;;;;;;5056043;28;20024;-86
2021/11/14 00:33:16;;;;;;;139.43;83.72;;;102.90;2227.20;;;;;;5056153;28;20517;-85
2021/11/14 00:35:42;;;;;;;142.43;88.38;;;103.10;2227.20;;;;;;5056430;28;20036;-86
2021/11/14 00:38:08;;;;;;;134.02;83.55;;;102.70;2227.20;;;;;;5074021;28;20024;-86
2021/11/14 00:40:36;;;;;;;127.18;79.85;;;102.60;2227.20;;;;;;5056215;28;20032;-86
2021/11/14 00:43:04;;;;;;;121.35;78.53;;;102.60;2227.20;;;;;;5074022;28;20033;-86
2021/11/14 00:45:31;;;;;;;106.00;68.47;;;102.80;2227.20;;;;;;5074087;28;20106;-86
2021/11/14 00:47:59;;;;;;;115.47;74.70;;;102.80;2227.20;;;;;;5056370;28;20040;-84
2021/11/14 00:50:25;;;;;;;149.85;87.75;;;103.00;2227.20;;;;;;5055872;28;20025;-85
2021/11/14 00:52:51;;;;;;;109.95;71.43;;;103.10;2227.20;;;;;;5074228;28;20028;-86
2021/11/14 00:55:20;;;;;;;111.25;66.72;;;103.10;2227.20;;;;;;5055921;28;20127;-86
2021/11/14 00:57:48;;;;;;;88.28;55.67;;;102.80;2227.20;;;;;;5055818;28;20032;-85
2021/11/14 01:00:19;;;;;;;114.13;68.38;;;102.90;2227.20;;;;;;5056045;28;20111;-85
2021/11/14 01:02:45;;;;;;;112.65;69.85;;;102.90;2227.20;;;;;;5058441;28;20059;-86
2021/11/14 01:05:14;;;;;;;138.05;82.00;;;102.80;2227.20;;;;;;5059958;28;20028;-86
2021/11/14 01:07:40;;;;;;;140.52;83.38;;;102.80;2227.20;;;;;;5077706;28;20055;-85
2021/11/14 01:10:09;;;;;;;168.10;97.10;;;102.90;2227.20;;;;;;5077525;28;20021;-86
2021/11/14 01:12:35;;;;;;;176.25;102.15;;;102.90;2227.20;;;;;;5059627;28;20028;-86
2021/11/14 01:15:01;;;;;;;191.02;112.63;;;103.00;2227.20;;;;;;5077705;28;20021;-85
2021/11/14 01:17:27;;;;;;;151.55;86.07;;;103.00;2227.20;;;;;;5059729;28;20128;-86
2021/11/14 01:19:53;;;;;;;103.45;62.00;;;103.10;2227.20;;;;;;5059651;28;20468;-85
2021/11/14 01:22:18;;;;;;;93.22;59.25;;;102.50;2227.20;;;;;;5059529;28;20137;-85
2021/11/14 01:24:44;;;;;;;107.88;60.90;;;102.80;2227.20;;;;;;5077232;28;20032;-86
2021/11/14 01:27:10;;;;;;;98.90;64.68;;;102.80;2227.20;;;;;;5077373;28;20032;-85
2021/11/14 01:29:36;;;;;;;114.85;68.50;;;103.00;2227.20;;;;;;5059410;28;20024;-86
2021/11/14 01:32:03;;;;;;;104.60;66.45;;;103.10;2227.20;;;;;;5059111;28;20031;-86
2021/11/14 01:34:29;;;;;;;93.40;60.95;;;102.90;2227.20;;;;;;5059214;28;20029;-86
2021/11/14 01:36:55;;;;;;;130.45;76.30;;;102.90;2227.20;;;;;;5059415;28;20029;-86
2021/11/14 01:39:21;;;;;;;122.90;75.57;;;102.90;2227.20;;;;;;5058817;28;20044;-86
2021/11/14 01:41:46;;;;;;;129.25;81.40;;;102.90;2227.20;;;;;;5059140;28;20029;-85
2021/11/14 01:44:13;;;;;;;127.60;76.07;;;103.00;2227.20;;;;;;5076725;28;20025;-84
2021/11/14 01:46:40;;;;;;;114.90;66.50;;;102.90;2227.20;;;;;;5058706;28;20025;-86
2021/11/14 01:49:07;;;;;;;104.30;65.57;;;102.70;2227.20;;;;;;5077015;28;20591;-86
2021/11/14 01:51:33;;;;;;;123.43;75.50;;;102.70;2227.20;;;;;;5059023;28;20158;-86
2021/11/14 01:53:59;;;;;;;124.65;75.40;;;102.60;2227.20;;;;;;5058738;28;20035;-86
2021/11/14 01:56:26;;;;;;;127.13;78.20;;;102.70;2227.20;;;;;;5076784;28;20028;-86
2021/11/14 01:58:53;;;;;;;135.13;80.10;;;102.50;2227.20;;;;;;5059034;28;20115;-85
2021/11/14 02:01:32;;;;;;;236.05;118.65;;;102.60;2227.20;;;;;;5058667;28;20029;-86
2021/11/14 02:04:03;;;;;;;152.52;91.28;;;102.60;2227.20;;;;;;5059164;28;20123;-86
2021/11/14 02:06:31;;;;;;;163.50;97.57;;;102.70;2227.20;;;;;;5076861;28;20073;-86
2021/11/14 02:08:57;;;;;;;142.63;84.97;;;102.80;2227.20;;;;;;5076144;28;20021;-85
2021/11/14 02:11:24;;;;;;;163.52;91.65;;;103.00;2227.20;;;;;;5058920;28;20028;-85
2021/11/14 02:13:51;;;;;;;157.82;88.85;;;102.90;2227.20;;;;;;5057867;28;20032;-85
2021/11/14 02:16:21;;;;;;;129.07;72.50;;;102.90;2227.20;;;;;;5058751;28;20080;-85
2021/11/14 02:18:47;;;;;;;103.28;60.45;;;103.00;2227.20;;;;;;5058527;28;20033;-85
2021/11/14 02:21:13;;;;;;;91.60;58.40;;;102.90;2227.20;;;;;;5058142;28;20046;-85
2021/11/14 02:23:39;;;;;;;116.35;71.80;;;103.00;2227.20;;;;;;5076240;28;20126;-85
2021/11/14 02:26:05;;;;;;;118.60;76.63;;;103.00;2227.20;;;;;;5058264;28;20028;-85
2021/11/14 02:28:31;;;;;;;118.22;73.90;;;102.70;2227.20;;;;;;5058011;28;20032;-85
2021/11/14 02:30:58;;;;;;;112.78;71.55;;;102.60;2227.20;;;;;;5058158;28;20082;-86
2021/11/14 02:33:26;;;;;;;101.93;62.03;;;102.70;2227.20;;;;;;5057953;28;20032;-85
2021/11/14 02:36:02;;;;;;;100.50;64.03;;;102.50;2227.20;;;;;;5057861;28;20029;-86
2021/11/14 02:38:29;;;;;;;112.50;69.25;;;102.60;2227.20;;;;;;5058024;28;20433;-84
2021/11/14 02:40:57;;;;;;;113.63;71.40;;;102.70;2227.20;;;;;;5058130;28;20025;-84
2021/11/14 02:43:24;;;;;;;117.43;70.90;;;102.70;2227.20;;;;;;5057792;28;20028;-86
2021/11/14 02:45:50;;;;;;;129.88;78.20;;;102.60;2227.20;;;;;;5058129;28;20033;-86
2021/11/14 02:48:19;;;;;;;121.00;70.55;;;102.50;2227.20;;;;;;5075786;28;20029;-86
2021/11/14 02:50:47;;;;;;;125.25;72.47;;;77.50;2227.20;;;;;;5057705;28;20127;-85
2021/11/14 02:53:13;;;;;;;111.13;66.88;;;77.20;2227.20;;;;;;5058030;28;20051;-85
2021/11/14 02:55:40;;;;;;;114.18;61.75;;;77.00;2227.20;;;;;;5057968;28;20481;-85
2021/11/14 02:58:07;;;;;;;101.60;60.78;;;52.10;2227.20;;;;;;5057333;28;20028;-86
2021/11/14 03:00:38;;;;;;;91.70;57.22;;;77.10;2227.20;;;;;;5057709;28;20035;-84
2021/11/14 03:03:05;;;;;;;86.28;51.35;;;77.20;2227.20;;;;;;5057597;28;20067;-86
2021/11/14 03:05:31;;;;;;;100.90;58.15;;;102.70;2227.20;;;;;;5057816;28;20025;-85
2021/11/14 03:07:58;;;;;;;102.78;57.47;;;77.50;2227.20;;;;;;5057882;28;20086;-87
2021/11/14 03:10:27;;;;;;;93.15;55.92;;;77.70;2227.20;;;;;;5057632;28;20024;-86
2021/11/14 03:13:00;;;;;;;111.90;66.75;;;102.50;2227.20;;;;;;5057637;28;20047;-86
2021/11/14 03:15:30;;;;;;;115.57;73.45;;;102.50;2227.20;;;;;;5057511;28;20036;-86
2021/11/14 03:17:56;;;;;;;85.68;54.80;;;102.40;2227.20;;;;;;5057129;28;20032;-86
2021/11/14 03:20:22;;;;;;;91.95;55.17;;;102.40;2227.20;;;;;;5057135;28;20030;-85
2021/11/14 03:22:48;;;;;;;79.70;48.53;;;102.40;2227.20;;;;;;5057184;28;20022;-86
2021/11/14 03:25:14;;;;;;;98.32;58.80;;;102.50;2227.20;;;;;;5055966;28;20351;-85
2021/11/14 03:27:40;;;;;;;93.55;56.53;;;102.50;2227.20;;;;;;5065476;28;20054;-85
2021/11/14 03:30:07;;;;;;;96.28;55.05;;;102.50;2227.20;;;;;;5076328;28;20020;-85
2021/11/14 03:32:32;;;;;;;83.55;53.47;;;77.40;2227.20;;;;;;5094051;28;20028;-85
2021/11/14 03:34:58;;;;;;;80.93;51.50;;;77.50;2227.20;;;;;;5075678;28;20078;-84
2021/11/14 03:37:24;;;;;;;88.32;51.33;;;77.40;2227.20;;;;;;5075938;28;20035;-85
2021/11/14 03:39:50;;;;;;;83.97;50.05;;;77.30;2227.20;;;;;;5075658;28;20048;-84
2021/11/14 03:42:16;;;;;;;81.68;49.50;;;77.50;2227.20;;;;;;5075587;28;20026;-85
2021/11/14 03:44:43;;;;;;;81.82;48.90;;;77.50;2227.20;;;;;;5076008;28;20361;-86
2021/11/14 03:47:10;;;;;;;77.63;47.67;;;77.60;2227.20;;;;;;5075696;28;20484;-84
2021/11/14 03:49:36;;;;;;;87.97;50.05;;;77.60;2227.20;;;;;;5093563;28;20020;-85
2021/11/14 03:52:10;;;;;;;84.70;50.67;;;77.60;2227.20;;;;;;5075851;28;20396;-85
2021/11/14 03:54:36;;;;;;;96.03;57.63;;;77.70;2227.20;;;;;;5084437;28;20065;-85
2021/11/14 03:57:03;;;;;;;100.80;63.08;;;77.70;2227.20;;;;;;5080094;28;20602;-85
2021/11/14 03:59:29;;;;;;;88.03;55.10;;;77.40;2227.20;;;;;;5093561;28;20036;-85
2021/11/14 04:01:55;;;;;;;80.70;50.75;;;77.40;2227.20;;;;;;5075833;28;20073;-84
2021/11/14 04:04:20;;;;;;;86.50;52.22;;;77.50;2227.20;;;;;;5075555;28;20126;-86
2021/11/14 04:06:46;;;;;;;75.57;44.25;;;77.50;2227.20;;;;;;5093699;28;20024;-86
2021/11/14 04:09:12;;;;;;;73.47;42.95;;;77.30;2227.20;;;;;;5075839;28;20028;-85
2021/11/14 04:11:38;;;;;;;79.78;46.55;;;77.30;2227.20;;;;;;5075265;28;20524;-86
2021/11/14 04:14:04;;;;;;;77.28;44.67;;;77.20;2227.20;;;;;;5075327;28;20089;-84
2021/11/14 04:16:29;;;;;;;76.97;46.05;;;77.10;2227.20;;;;;;5075839;28;20024;-84
2021/11/14 04:18:55;;;;;;;67.93;45.28;;;52.10;2227.20;;;;;;5075209;28;20028;-84
2021/11/14 04:21:21;;;;;;;73.10;44.67;;;76.90;2227.20;;;;;;5075430;28;20027;-85
2021/11/14 04:23:47;;;;;;;70.53;43.35;;;76.80;2227.20;;;;;;5075615;28;20032;-84
2021/11/14 04:26:14;;;;;;;63.50;43.15;;;76.90;2227.20;;;;;;5075270;28;20393;-84
2021/11/14 04:28:40;;;;;;;75.75;43.88;;;76.90;2227.20;;;;;;5075122;28;20024;-84
2021/11/14 04:31:06;;;;;;;71.22;42.50;;;76.90;2227.20;;;;;;5075614;28;20020;-85
2021/11/14 04:33:32;;;;;;;75.47;43.45;;;76.80;2227.20;;;;;;5075224;28;20123;-84
2021/11/14 04:35:58;;;;;;;75.45;46.40;;;76.80;2227.20;;;;;;5077734;28;20115;-86
2021/11/14 04:38:24;;;;;;;76.47;45.67;;;76.90;2227.20;;;;;;5081956;28;20409;-86
2021/11/14 04:40:50;;;;;;;73.65;44.42;;;77.00;2227.20;;;;;;5081551;28;20088;-85
2021/11/14 04:43:17;;;;;;;79.35;47.15;;;77.00;2227.20;;;;;;5082006;28;20123;-84
2021/11/14 04:45:44;;;;;;;80.25;46.05;;;77.00;2227.20;;;;;;5082155;28;20035;-85
2021/11/14 04:48:10;;;;;;;118.85;65.18;;;77.00;2227.20;;;;;;5081227;28;20028;-85
2021/11/14 04:50:36;;;;;;;113.63;58.05;;;77.10;2227.20;;;;;;5082007;28;20020;-86
2021/11/14 04:53:04;;;;;;;81.85;46.03;;;77.20;2227.20;;;;;;5082339;28;20024;-85
2021/11/14 04:55:31;;;;;;;71.75;42.80;;;77.20;2227.20;;;;;;5081306;28;20419;-86
2021/11/14 04:57:57;;;;;;;74.38;45.33;;;77.00;2227.20;;;;;;5082148;28;20123;-84
2021/11/14 05:00:26;;;;;;;76.63;47.75;;;76.90;2227.20;;;;;;5082162;28;20130;-85
2021/11/14 05:02:52;;;;;;;93.18;54.78;;;77.00;2227.20;;;;;;5081451;28;20028;-86
2021/11/14 05:05:19;;;;;;;93.28;57.97;;;76.80;2227.20;;;;;;5082192;28;20646;-85
2021/11/14 05:07:45;;;;;;;105.05;61.40;;;52.00;2227.20;;;;;;5081915;28;20122;-85
2021/11/14 05:10:11;;;;;;;103.13;62.65;;;51.70;2227.20;;;;;;5099491;28;20080;-84
2021/11/14 05:12:37;;;;;;;94.03;55.65;;;51.80;2227.20;;;;;;5082025;28;20252;-83
2021/11/14 05:15:04;;;;;;;82.07;50.83;;;51.60;2227.20;;;;;;5081828;28;20034;-85
2021/11/14 05:17:30;;;;;;;83.72;49.90;;;52.00;2227.20;;;;;;5081700;28;20038;-84
2021/11/14 05:19:56;;;;;;;81.68;51.55;;;52.00;2227.20;;;;;;5081624;28;20020;-85
2021/11/14 05:22:22;;;;;;;84.85;50.13;;;51.90;2227.20;;;;;;5081866;28;20508;-86
2021/11/14 05:24:47;;;;;;;76.22;47.10;;;52.10;2227.20;;;;;;5081256;28;20028;-86
2021/11/14 05:27:13;;;;;;;71.90;46.53;;;51.70;2227.20;;;;;;5081322;28;20035;-85
2021/11/14 05:29:39;;;;;;;80.15;48.10;;;52.10;2227.20;;;;;;5100168;28;20028;-86
2021/11/14 05:32:06;;;;;;;73.50;44.05;;;76.90;2227.20;;;;;;5081774;28;20031;-86
2021/11/14 05:34:31;;;;;;;78.10;47.83;;;76.90;2227.20;;;;;;5081195;28;20120;-86
2021/11/14 05:36:57;;;;;;;75.43;50.58;;;76.90;2227.20;;;;;;5081464;28;20119;-85
2021/11/14 05:39:23;;;;;;;87.93;56.13;;;76.90;2227.20;;;;;;5081298;28;20047;-86
2021/11/14 05:41:49;;;;;;;91.35;51.40;;;76.90;2227.20;;;;;;5081249;28;20032;-86
2021/11/14 05:44:15;;;;;;;86.60;57.38;;;76.90;2227.20;;;;;;5081388;28;20131;-85
2021/11/14 05:46:41;;;;;;;78.80;49.13;;;76.90;2227.20;;;;;;5081211;28;20030;-86
2021/11/14 05:49:09;;;;;;;83.70;54.53;;;52.10;2227.20;;;;;;5077396;28;20495;-85
2021/11/14 05:51:36;;;;;;;119.72;68.35;;;76.90;2227.20;;;;;;5077903;28;20074;-86
2021/11/14 05:54:03;;;;;;;99.88;60.22;;;52.10;2227.20;;;;;;5078431;28;20073;-86
2021/11/14 05:56:29;;;;;;;84.75;53.20;;;76.80;2227.20;;;;;;5078192;28;20086;-86
2021/11/14 06:01:35;;;;;;;86.00;53.58;;;51.80;2227.20;;;;;;5096284;28;20077;-84
2021/11/14 06:04:07;;;;;;;78.22;51.75;;;52.00;2227.20;;;;;;5095803;28;20028;-84
2021/11/14 06:06:33;;;;;;;77.25;51.15;;;52.10;2227.20;;;;;;5078110;28;20035;-86
2021/11/14 06:08:59;;;;;;;77.97;51.45;;;52.10;2227.20;;;;;;5078375;28;20028;-85
2021/11/14 06:11:26;;;;;;;78.90;52.17;;;52.10;2227.20;;;;;;5077847;28;20028;-86
2021/11/14 06:13:53;;;;;;;77.70;47.03;;;77.20;2227.20;;;;;;5077446;28;20028;-86
2021/11/14 06:16:20;;;;;;;78.13;49.50;;;51.80;2227.20;;;;;;5078109;28;20024;-85
2021/11/14 06:18:46;;;;;;;83.68;52.38;;;51.80;2227.20;;;;;;5095844;28;20450;-83
2021/11/14 06:21:12;;;;;;;102.32;59.67;;;52.00;2227.20;;;;;;5077746;28;20353;-85
2021/11/14 06:23:38;;;;;;;128.27;76.90;;;52.10;2227.20;;;;;;5077840;28;20085;-85
2021/11/14 06:26:05;;;;;;;102.40;63.10;;;51.70;2227.20;;;;;;5095195;28;20032;-87
2021/11/14 06:28:31;;;;;;;122.22;71.35;;;51.60;2227.20;;;;;;5077751;28;20020;-86
2021/11/14 06:30:57;;;;;;;120.38;72.03;;;51.70;2227.20;;;;;;5095809;28;20392;-87
2021/11/14 06:33:23;;;;;;;134.10;83.13;;;52.00;2227.20;;;;;;5094533;28;20074;-84
2021/11/14 06:35:49;;;;;;;120.03;76.15;;;52.00;2227.20;;;;;;5077810;28;20028;-85
2021/11/14 06:38:15;;;;;;;110.80;75.22;;;51.90;2227.20;;;;;;5077313;28;20040;-85
2021/11/14 06:40:41;;;;;;;145.55;94.10;;;51.80;2227.20;;;;;;5077026;28;20035;-85
2021/11/14 06:43:07;;;;;;;128.02;80.15;;;52.00;2227.20;;;;;;5077443;28;20543;-85
2021/11/14 06:45:33;;;;;;;131.18;80.60;;;51.90;2227.20;;;;;;5077539;28;20128;-85
2021/11/14 06:47:59;;;;;;;187.48;105.22;;;52.00;2227.20;;;;;;5077005;28;20028;-86
2021/11/14 06:50:25;;;;;;;132.82;83.72;;;52.00;2227.20;;;;;;5094951;28;20858;-86
2021/11/14 06:52:51;;;;;;;132.45;83.60;;;51.80;2227.20;;;;;;5076944;28;20529;-84
2021/11/14 06:55:19;;;;;;;134.88;82.88;;;52.00;2227.20;;;;;;5076252;28;20028;-84
2021/11/14 06:57:46;;;;;;;126.20;81.57;;;52.10;2227.20;;;;;;5095341;28;20059;-83
2021/11/14 07:00:18;;;;;;;132.27;83.85;;;77.00;2227.20;;;;;;5075609;28;20119;-82
2021/11/14 07:02:44;;;;;;;144.05;87.82;;;76.90;2227.20;;;;;;5076001;28;20516;-85
2021/11/14 07:05:11;;;;;;;136.27;84.28;;;76.90;2227.20;;;;;;5076725;28;20374;-84
2021/11/14 07:07:37;;;;;;;130.55;78.78;;;77.10;2227.20;;;;;;5076704;28;20032;-85
2021/11/14 07:10:06;;;;;;;123.03;73.88;;;77.30;2227.20;;;;;;5076051;28;20024;-83
2021/11/14 07:12:32;;;;;;;108.93;64.95;;;77.50;2227.20;;;;;;5076351;28;20461;-85
2021/11/14 07:14:58;;;;;;;118.60;71.47;;;77.40;2227.20;;;;;;5094308;28;20028;-84
2021/11/14 07:17:26;;;;;;;139.25;82.55;;;77.50;2227.20;;;;;;5076019;28;20028;-84
2021/11/14 07:19:52;;;;;;;117.78;73.43;;;77.60;2227.20;;;;;;5076348;28;20020;-83
2021/11/14 07:22:18;;;;;;;93.72;61.78;;;102.40;2227.20;;;;;;5076091;28;20024;-86
2021/11/14 07:24:44;;;;;;;105.18;68.93;;;102.40;2227.20;;;;;;5075916;28;20384;-84
2021/11/14 07:27:10;;;;;;;112.93;73.10;;;102.50;2227.20;;;;;;5076270;28;20031;-85
2021/11/14 07:29:36;;;;;;;101.32;64.95;;;102.60;2227.20;;;;;;5075732;28;20032;-84
2021/11/14 07:32:02;;;;;;;90.03;60.28;;;102.70;2227.20;;;;;;5094110;28;20062;-85
2021/11/14 07:34:28;;;;;;;85.43;55.97;;;102.70;2227.20;;;;;;5075826;28;20074;-84
2021/11/14 07:36:54;;;;;;;77.25;52.17;;;102.70;2227.20;;;;;;5075614;28;20028;-85
2021/11/14 07:39:19;;;;;;;80.22;52.20;;;102.70;2227.20;;;;;;5093218;28;20055;-84
2021/11/14 07:41:45;;;;;;;80.53;54.25;;;102.70;2227.20;;;;;;5075998;28;20461;-84
2021/11/14 07:44:11;;;;;;;89.80;57.75;;;102.90;2227.20;;;;;;5075869;28;20073;-85
2021/11/14 07:46:37;;;;;;;118.28;84.90;;;103.00;2227.20;;;;;;5075294;28;20028;-83
2021/11/14 07:49:03;;;;;;;113.03;73.13;;;103.00;2227.20;;;;;;5075730;28;20020;-84
2021/11/14 07:51:30;;;;;;;98.32;63.40;;;103.00;2227.20;;;;;;5075389;28;20031;-86
2021/11/14 07:53:58;;;;;;;84.57;56.38;;;103.10;2227.20;;;;;;5075392;28;20028;-83
2021/11/14 07:56:24;;;;;;;79.22;53.45;;;103.30;2227.20;;;;;;5075510;28;20036;-84
2021/11/14 07:58:50;;;;;;;87.97;56.75;;;103.30;2227.20;;;;;;5075001;28;20457;-80
2021/11/14 08:01:16;;;;;;;88.18;57.65;;;128.00;2252.80;;;;;;5074908;28;20036;-80
2021/11/14 08:03:41;;;;;;;95.72;66.50;;;128.20;2252.80;;;;;;5075178;28;20032;-79
2021/11/14 08:06:07;;;;;;;92.78;58.58;;;128.30;2252.80;;;;;;5074987;28;20032;-77
2021/11/14 08:08:33;;;;;;;95.35;61.85;;;128.40;2252.80;;;;;;5092777;28;20028;-77
2021/11/14 08:10:59;;;;;;;89.10;59.25;;;128.50;2252.80;;;;;;5093844;28;20024;-78
2021/11/14 08:13:25;;;;;;;88.38;58.08;;;128.70;2252.80;;;;;;5076762;28;20038;-79
2021/11/14 08:15:51;;;;;;;89.72;62.05;;;128.90;2252.80;;;;;;5074303;28;20024;-77
2021/11/14 08:18:17;;;;;;;100.05;68.22;;;153.60;2252.80;;;;;;5092836;28;20024;-79
2021/11/14 08:20:44;;;;;;;121.38;79.97;;;153.80;2252.80;;;;;;5092892;28;20027;-79
2021/11/14 08:23:10;;;;;;;106.43;74.20;;;153.90;2252.80;;;;;;5075896;28;20056;-79
2021/11/14 08:25:36;;;;;;;105.35;72.60;;;154.00;2252.80;;;;;;5093472;28;20024;-80
2021/11/14 08:28:03;;;;;;;101.65;69.28;;;154.10;2252.80;;;;;;5075778;28;20427;-81
2021/11/14 08:30:29;;;;;;;81.10;55.38;;;154.30;2252.80;;;;;;5075745;28;20074;-79
2021/11/14 08:32:55;;;;;;;88.05;61.10;;;154.40;2252.80;;;;;;5093451;28;20038;-80
2021/11/14 08:35:22;;;;;;;76.95;54.60;;;154.50;2252.80;;;;;;5075503;28;20024;-79
2021/11/14 08:37:50;;;;;;;75.57;50.38;;;154.50;2252.80;;;;;;5075354;28;20103;-78
2021/11/14 08:40:17;;;;;;;70.75;46.50;;;179.30;2252.80;;;;;;5093421;28;20051;-80
2021/11/14 08:42:43;;;;;;;77.95;52.95;;;154.20;2252.80;;;;;;5075598;28;20028;-78
2021/11/14 08:45:10;;;;;;;73.82;52.05;;;179.50;2252.80;;;;;;5076735;28;20024;-83
2021/11/14 08:47:36;;;;;;;63.63;43.08;;;179.60;2252.80;;;;;;5075485;28;20020;-83
2021/11/14 08:50:04;;;;;;;58.42;41.17;;;179.70;2252.80;;;;;;5075818;28;20560;-83
2021/11/14 08:52:31;;;;;;;59.13;41.33;;;179.70;2252.80;;;;;;5075827;28;20024;-84
2021/11/14 08:54:57;;;;;;;56.05;41.38;;;179.90;2252.80;;;;;;5075536;28;20032;-85
2021/11/14 08:57:23;;;;;;;63.30;42.65;;;180.00;2252.80;;;;;;5075854;28;20115;-81
2021/11/14 08:59:49;;;;;;;58.65;40.63;;;180.10;2252.80;;;;;;5093646;28;20380;-82
2021/11/14 09:02:16;;;;;;;64.45;43.50;;;180.10;2252.80;;;;;;5075977;28;20035;-85
2021/11/14 09:04:42;;;;;;;69.22;48.03;;;180.10;2252.80;;;;;;5076284;28;20028;-84
2021/11/14 09:07:08;;;;;;;64.32;44.92;;;204.90;2252.80;;;;;;5075517;28;20024;-84
2021/11/14 09:09:35;;;;;;;74.20;57.17;;;205.10;2252.80;;;;;;5093850;28;20028;-84
2021/11/14 09:12:01;;;;;;;61.40;45.60;;;205.20;2252.80;;;;;;5075664;28;20033;-84
2021/11/14 09:14:27;;;;;;;64.90;48.03;;;205.40;2252.80;;;;;;5075139;28;20031;-83
2021/11/14 09:16:54;;;;;;;67.70;46.47;;;205.50;2252.80;;;;;;5075370;28;20028;-83
2021/11/14 09:19:21;;;;;;;71.72;50.45;;;205.60;2252.80;;;;;;5075598;28;20028;-83
2021/11/14 09:21:47;;;;;;;61.50;44.50;;;205.60;2252.80;;;;;;5075273;28;20055;-83
2021/11/14 09:24:14;;;;;;;52.45;39.47;;;230.40;2252.80;;;;;;5078565;28;20031;-82
2021/11/14 09:26:40;;;;;;;78.22;66.30;;;205.70;2252.80;;;;;;5097398;28;20076;-82
2021/11/14 09:29:06;;;;;;;62.70;48.25;;;230.60;2252.80;;;;;;5078833;28;20116;-83
2021/11/14 09:31:33;;;;;;;45.00;32.97;;;230.60;2252.80;;;;;;5079140;28;20028;-81
2021/11/14 09:33:59;;;;;;;49.47;37.55;;;230.80;2252.80;;;;;;5079381;28;20587;-83
2021/11/14 09:36:30;;;;;;;48.60;35.08;;;230.90;2252.80;;;;;;5078730;28;20032;-82
2021/11/14 09:39:02;;;;;;;48.00;36.30;;;230.60;2252.80;;;;;;5078631;28;20048;-82
2021/11/14 09:41:29;;;;;;;40.17;30.67;;;231.00;2252.80;;;;;;5078730;28;20034;-82
2021/11/14 09:43:55;;;;;;;54.80;32.55;;;231.10;2252.80;;;;;;5078430;28;20036;-84
2021/11/14 09:46:21;;;;;;;38.33;27.58;;;231.30;2252.80;;;;;;5078684;28;20027;-81
2021/11/14 09:48:48;;;;;;;43.65;32.03;;;231.30;2252.80;;;;;;5096580;28;20028;-81
2021/11/14 09:51:15;;;;;;;41.55;27.02;;;256.00;2252.80;;;;;;5078973;28;20097;-84
2021/11/14 09:53:42;;;;;;;37.20;28.38;;;256.00;2252.80;;;;;;5096661;28;20040;-81
2021/11/14 09:56:09;;;;;;;51.10;35.63;;;231.30;2252.80;;;;;;5096342;28;20036;-84
2021/11/14 09:58:36;;;;;;;42.03;30.98;;;256.00;2252.80;;;;;;5096290;28;20435;-84
2021/11/14 10:01:04;;;;;;;41.92;30.23;;;256.20;2252.80;;;;;;5096615;28;20082;-84
2021/11/14 10:03:30;;;;;;;39.90;27.40;;;256.10;2252.80;;;;;;5078396;28;20021;-83
2021/11/14 10:05:56;;;;;;;49.78;35.70;;;256.40;2252.80;;;;;;5078655;28;20024;-85
2021/11/14 10:08:23;;;;;;;53.30;37.35;;;256.60;2252.80;;;;;;5078396;28;20035;-84
2021/11/14 10:10:52;;;;;;;43.97;29.88;;;256.60;2252.80;;;;;;5096470;28;20554;-85
2021/11/14 10:13:25;;;;;;;63.65;48.65;;;256.60;2252.80;;;;;;5078382;28;20025;-85
2021/11/14 10:15:56;;;;;;;;;;;256.70;2252.80;;;;;;5078844;28;20120;-83
2021/11/14 10:18:22;;;;;;;46.78;37.08;;;256.80;2252.80;;;;;;5078018;28;20261;-82
2021/11/14 10:20:56;;;;;;;47.50;35.53;;;256.80;2252.80;;;;;;5077985;28;20031;-84
2021/11/14 10:23:22;;;;;;;54.85;39.10;;;281.60;2278.40;;;;;;5078203;28;20027;-83
2021/11/14 10:25:50;;;;;;;48.63;36.40;;;281.70;2278.40;;;;;;5077676;28;20020;-83
2021/11/14 10:28:16;;;;;;;58.35;45.33;;;281.70;2278.40;;;;;;5078021;28;20036;-83
2021/11/14 10:30:47;;;;;;;65.40;45.65;;;281.70;2278.40;;;;;;5096041;28;20024;-83
2021/11/14 10:33:16;;;;;;;66.57;47.15;;;282.00;2278.40;;;;;;5095791;28;20024;-83
2021/11/14 10:35:44;;;;;;;44.70;33.53;;;282.00;2278.40;;;;;;5077889;28;20039;-82
2021/11/14 10:38:14;;;;;;;77.65;51.95;;;282.20;2278.40;;;;;;5077278;28;20028;-82
2021/11/14 10:40:47;;;;;;;70.95;47.88;;;282.30;2278.40;;;;;;5077960;28;20635;-84
2021/11/14 10:43:16;;;;;;;;;;;282.40;2278.40;;;;;;5078460;28;20123;-84
2021/11/14 10:45:42;;;;;;;55.17;35.88;;;282.50;2278.40;;;;;;5077782;28;19910;-82
2021/11/14 10:48:23;;;;;;;65.72;46.17;;;307.20;2304.00;;;;;;5077256;28;20032;-83
2021/11/14 10:50:54;;;;;;;42.80;33.08;;;307.40;2304.00;;;;;;5095431;28;20024;-82
2021/11/14 10:53:23;;;;;;;56.15;37.08;;;307.30;2304.00;;;;;;5077557;28;20591;-82
2021/11/14 10:55:52;;;;;;;46.85;36.05;;;307.30;2304.00;;;;;;5096078;28;20453;-81
2021/11/14 10:58:20;;;;;;;41.72;30.98;;;307.50;2304.00;;;;;;5078177;28;20036;-83
2021/11/14 11:00:48;;;;;;;81.95;55.15;;;307.60;2304.00;;;;;;5077748;28;20027;-81
2021/11/14 11:03:14;;;;;;;50.00;35.03;;;307.70;2304.00;;;;;;5077610;28;20020;-83
2021/11/14 11:05:41;;;;;;;67.90;50.30;;;308.00;2304.00;;;;;;5077768;28;20073;-84
2021/11/14 11:08:10;;;;;;;53.35;33.42;;;308.10;2304.00;;;;;;5077160;28;20423;-83
2021/11/14 11:10:51;;;;;;;36.30;27.65;;;332.80;2329.60;;;;;;5077719;28;20049;-84
2021/11/14 11:13:30;;;;;;;49.00;33.67;;;333.00;2329.60;;;;;;5077019;28;20130;-80
2021/11/14 11:15:59;;;;;;;44.20;32.60;;;333.10;2329.60;;;;;;5095313;28;20028;-80
2021/11/14 11:18:25;;;;;;;47.63;35.22;;;333.50;2329.60;;;;;;5095293;28;20048;-83
2021/11/14 11:20:55;;;;;;;40.03;28.52;;;358.40;2329.60;;;;;;5076656;28;20074;-81
2021/11/14 11:23:22;;;;;;;67.93;50.88;;;358.40;2329.60;;;;;;5094773;28;20484;-81
2021/11/14 11:25:57;;;;;;;52.83;38.67;;;358.50;2329.60;;;;;;5077119;28;20042;-81
2021/11/14 11:28:26;;;;;;;87.90;63.17;;;358.70;2329.60;;;;;;5077302;28;20035;-83
2021/11/14 11:30:58;;;;;;;48.10;35.42;;;359.00;2329.60;;;;;;5095376;28;20133;-84
2021/11/14 11:33:25;;;;;;;34.60;26.60;;;359.20;2329.60;;;;;;5077436;28;20174;-84
2021/11/14 11:35:53;;;;;;;38.25;31.17;;;359.20;2329.60;;;;;;5076464;28;20035;-83
2021/11/14 11:38:20;;;;;;;36.83;28.23;;;384.10;2329.60;;;;;;5076674;28;20414;-82
2021/11/14 11:40:47;;;;;;;46.53;35.33;;;384.10;2304.00;;;;;;5094582;28;20032;-80
2021/11/14 11:43:13;;;;;;;45.65;38.40;;;384.20;2278.40;;;;;;5076481;28;20020;-82
2021/11/14 11:45:41;;;;;;;46.65;33.25;;;384.50;2278.40;;;;;;5075829;28;20035;-80
2021/11/14 11:48:43;;;;;;;40.47;32.15;;;384.60;2278.40;;;;;;5076461;28;20031;-82
2021/11/14 11:51:19;;;;;;;37.08;27.55;;;384.40;2227.20;;;;;;5045271;28;20059;-81
2021/11/14 11:54:12;;;;;;;32.95;25.85;;;384.60;2252.80;;;;;;5076827;28;20122;-83
2021/11/14 11:56:50;;;;;;;44.05;30.02;;;384.90;2252.80;;;;;;5076546;28;20038;-83
2021/11/14 11:59:36;;;;;;;31.27;24.23;;;384.90;2252.80;;;;;;5076494;28;20028;-83
2021/11/14 12:02:07;;;;;;;32.28;26.08;;;409.70;2252.80;;;;;;5076145;28;20055;-82